地図

経路データ

SID SEASON NUMBER BASIN SUBBASIN NAME ISO_TIME NATURE LAT LON WMO_WIND WMO_PRES WMO_AGENCY TRACK_TYPE DIST2LAND LANDFALL IFLAG USA_AGENCY USA_ATCF_ID USA_LAT USA_LON USA_RECORD USA_STATUS USA_WIND USA_PRES USA_SSHS USA_R34_NE USA_R34_SE USA_R34_SW USA_R34_NW USA_R50_NE USA_R50_SE USA_R50_SW USA_R50_NW USA_R64_NE USA_R64_SE USA_R64_SW USA_R64_NW USA_POCI USA_ROCI USA_RMW USA_EYE TOKYO_LAT TOKYO_LON TOKYO_GRADE TOKYO_WIND TOKYO_PRES TOKYO_R50_DIR TOKYO_R50_LONG TOKYO_R50_SHORT TOKYO_R30_DIR TOKYO_R30_LONG TOKYO_R30_SHORT TOKYO_LAND CMA_LAT CMA_LON CMA_CAT CMA_WIND CMA_PRES HKO_LAT HKO_LON HKO_CAT HKO_WIND HKO_PRES NEWDELHI_LAT NEWDELHI_LON NEWDELHI_GRADE NEWDELHI_WIND NEWDELHI_PRES NEWDELHI_CI NEWDELHI_DP NEWDELHI_POCI REUNION_LAT REUNION_LON REUNION_TYPE REUNION_WIND REUNION_PRES REUNION_TNUM REUNION_CI REUNION_RMW REUNION_R34_NE REUNION_R34_SE REUNION_R34_SW REUNION_R34_NW REUNION_R50_NE REUNION_R50_SE REUNION_R50_SW REUNION_R50_NW REUNION_R64_NE REUNION_R64_SE REUNION_R64_SW REUNION_R64_NW BOM_LAT BOM_LON BOM_TYPE BOM_WIND BOM_PRES BOM_TNUM BOM_CI BOM_RMW BOM_R34_NE BOM_R34_SE BOM_R34_SW BOM_R34_NW BOM_R50_NE BOM_R50_SE BOM_R50_SW BOM_R50_NW BOM_R64_NE BOM_R64_SE BOM_R64_SW BOM_R64_NW BOM_ROCI BOM_POCI BOM_EYE BOM_POS_METHOD BOM_PRES_METHOD NADI_LAT NADI_LON NADI_CAT NADI_WIND NADI_PRES WELLINGTON_LAT WELLINGTON_LON WELLINGTON_WIND WELLINGTON_PRES DS824_LAT DS824_LON DS824_STAGE DS824_WIND DS824_PRES TD9636_LAT TD9636_LON TD9636_STAGE TD9636_WIND TD9636_PRES TD9635_LAT TD9635_LON TD9635_WIND TD9635_PRES TD9635_ROCI NEUMANN_LAT NEUMANN_LON NEUMANN_CLASS NEUMANN_WIND NEUMANN_PRES MLC_LAT MLC_LON MLC_CLASS MLC_WIND MLC_PRES USA_GUST BOM_GUST BOM_GUST_PER REUNION_GUST REUNION_GUST_PER USA_SEAHGT USA_SEARAD_NE USA_SEARAD_SE USA_SEARAD_SW USA_SEARAD_NW STORM_SPEED STORM_DIR
1949243N17145 1949 62 WP MM LISE 1949-08-31 00:00:00 TS 16.8000 145.480 main 2092 2070 O_O______OOO__ jtwc_wp WP101949 16.7000 145.300 25 -1 17.2000 146.200 0 1003 16.7000 145.300 TC 25 16.7000 145.300 1 25 16.7000 145.300 25 997 120 9 270
1949243N17145 1949 62 WP MM LISE 1949-08-31 03:00:00 TS 16.8010 144.988 main 2070 2048 P_P______PPP__ WP101949 16.7002 144.803 25 -1 17.2002 145.750 0 1002 16.7002 144.803 TC 25 16.7043 144.784 1 25 16.7002 144.803 25 996 120 9 270
1949243N17145 1949 62 WP MM LISE 1949-08-31 06:00:00 TS 16.8013 144.495 main 2048 2027 O_O______OPO__ jtwc_wp WP101949 16.7000 144.300 25 -1 17.2000 145.300 0 1002 16.7000 144.300 TC 25 16.7063 144.275 1 25 16.7000 144.300 25 996 120 9 270
1949243N17145 1949 62 WP MM LISE 1949-08-31 09:00:00 TS 16.8010 144.001 main 2027 2004 P_P______PPP__ WP101949 16.6999 143.793 25 -1 17.1999 144.850 0 1001 16.6999 143.793 TC 25 16.7051 143.778 1 25 16.6999 143.793 25 995 120 9 270
1949243N17145 1949 62 WP MM LISE 1949-08-31 12:00:00 TS 16.8000 143.520 main 2004 1963 O_O______OOO__ jtwc_wp WP101949 16.7000 143.300 25 -1 17.2000 144.400 0 1001 16.7000 143.300 TC 25 16.7000 143.300 1 25 16.7000 143.300 25 994 120 9 270
1949243N17145 1949 62 WP MM LISE 1949-08-31 15:00:00 TS 16.7981 143.067 main 1963 1911 P_P______PPP__ WP101949 16.6999 142.842 25 -1 17.1998 143.965 0 1000 16.6999 142.842 TC 25 16.6913 142.844 1 25 16.6999 142.842 25 993 120 9 270
1949243N17145 1949 62 WP MM LISE 1949-08-31 18:00:00 TS 16.7968 142.620 main 1911 1869 O_O______OPO__ jtwc_wp WP101949 16.7000 142.400 25 -1 17.2000 143.500 1 29 1000 16.7000 142.400 TC 25 16.6842 142.400 1 25 16.7000 142.400 25 992 120 9 270
1949243N17145 1949 62 WP MM LISE 1949-08-31 21:00:00 TS 16.7909 142.163 main 1869 1818 P_P______PPP__ WP101949 16.6923 141.965 25 -1 17.1925 142.965 1 29 999 16.6923 141.965 TC 25 16.6850 141.956 1 25 16.6923 141.965 25 990 120 9 270
1949243N17145 1949 62 WP MM LISE 1949-09-01 00:00:00 TS 16.8000 141.680 main 1818 1766 O_O______OOO__ jtwc_wp WP101949 16.7000 141.500 25 -1 17.2000 142.400 1 29 999 16.7000 141.500 TC 25 16.7000 141.500 1 25 16.7000 141.500 25 989 120 10 273
1949243N17145 1949 62 WP MM LISE 1949-09-01 03:00:00 TS 16.8395 141.141 main 1756 1708 P_P______PPP__ WP101949 16.7426 140.950 25 -1 17.2423 141.858 1 29 998 16.7426 140.950 TC 25 16.7276 140.998 1 26 16.7426 140.950 25 988 150 10 275
1949243N17145 1949 62 WP MM LISE 1949-09-01 06:00:00 TS 16.8940 140.597 main 1708 1657 O_O______OPO__ jtwc_wp WP101949 16.8000 140.400 25 -1 17.3000 141.300 1 29 998 16.8000 140.400 TC 25 16.7701 140.485 1 27 16.8000 140.400 25 987 180 10 276
1949243N17145 1949 62 WP MM LISE 1949-09-01 09:00:00 TS 16.9454 140.094 main 1657 1609 P_P______PPP__ WP101949 16.8498 139.927 27 -1 17.3499 140.707 1 33 997 16.8498 139.927 TC 27 16.8276 139.979 1 28 16.8498 139.927 27 986 210 9 276
1949243N17145 1949 62 WP MM LISE 1949-09-01 12:00:00 TS 17.0000 139.620 main 1609 1569 O_O______OOO__ jtwc_wp WP101949 16.9000 139.500 30 -1 17.4000 140.100 2 38 997 16.9000 139.500 TC 30 16.9000 139.500 1 30 16.9000 139.500 30 985 240 9 276
1949243N17145 1949 62 WP MM LISE 1949-09-01 15:00:00 TS 17.0400 139.166 main 1569 1532 P_P______PPP__ WP101949 16.9349 139.092 35 0 17.4424 139.492 2 38 996 16.9349 139.092 TC 35 16.9527 139.059 1 35 16.9349 139.092 35 984 210 9 277
1949243N17145 1949 62 WP MM LISE 1949-09-01 18:00:00 TS 17.1049 138.729 main 1522 1486 O_O______OPO__ jtwc_wp WP101949 17.0000 138.700 40 0 17.5000 138.900 2 38 996 17.0000 138.700 TC 40 17.0246 138.647 1 40 17.0000 138.700 40 983 180 8 282
1949243N17145 1949 62 WP MM LISE 1949-09-01 21:00:00 TS 17.2127 138.301 main 1486 1454 P_P______PPP__ WP101949 17.1124 138.307 45 0 17.5925 138.320 2 43 994 17.1124 138.307 TC 45 17.1341 138.262 1 45 17.1124 138.307 45 981 180 9 289
1949243N17145 1949 62 WP MM LISE 1949-09-02 00:00:00 TS 17.3800 137.880 main 1454 1414 O_O______OOO__ jtwc_wp WP101949 17.3000 137.900 50 0 17.7000 137.800 3 48 992 17.3000 137.900 TC 50 17.3000 137.900 2 50 17.3000 137.900 50 980 180 9 295
1949243N17145 1949 62 WP MM LISE 1949-09-02 03:00:00 TS 17.6060 137.421 main 1414 1389 P_P______PPP__ WP101949 17.5777 137.420 60 0 17.7623 137.362 3 53 990 17.5777 137.420 TC 60 17.5345 137.481 2 55 17.5777 137.420 60 978 210 10 302
1949243N17145 1949 62 WP MM LISE 1949-09-02 06:00:00 TS 17.8850 137.019 main 1389 1371 O_O______OPO__ jtwc_wp WP101949 17.9000 137.000 70 1 17.9000 137.000 3 58 988 17.9000 137.000 TC 70 17.8252 137.094 2 60 17.9000 137.000 70 976 240 9 310
1949243N17145 1949 62 WP MM LISE 1949-09-02 09:00:00 TS 18.1811 136.704 main 1376 1372 P_P______PPP__ WP101949 18.1849 136.717 70 1 18.1975 136.581 3 58 986 18.1849 136.717 TC 70 18.1533 136.785 2 65 18.1849 136.717 70 973 300 8 326
1949243N17145 1949 62 WP MM LISE 1949-09-02 12:00:00 TS 18.5200 136.560 main 1383 1383 O_O______OOO__ jtwc_wp WP101949 18.5000 136.600 70 1 18.6000 136.400 3 58 984 18.5000 136.600 TC 70 18.5000 136.600 3 70 18.5000 136.600 70 971 360 7 355
1949243N17145 1949 62 WP MM LISE 1949-09-02 15:00:00 TS 18.9225 136.637 main 1405 1405 P_P______PPP__ WP101949 18.9000 136.647 72 1 19.0652 136.694 3 58 982 18.9000 136.647 TC 72 18.8472 136.550 3 73 18.9000 136.647 72 969 390 9 19
1949243N17145 1949 62 WP MM LISE 1949-09-02 18:00:00 TS 19.3213 136.846 main 1443 1421 O_O______OPO__ jtwc_wp WP101949 19.3000 136.800 75 1 19.5000 137.200 3 58 980 19.3000 136.800 TC 75 19.2066 136.632 3 77 19.3000 136.800 75 967 420 8 28
1949243N17145 1949 62 WP MM LISE 1949-09-02 21:00:00 TS 19.6480 137.041 main 1421 1400 P_P______PPP__ WP101949 19.6375 136.928 80 1 19.7649 137.600 3 63 978 19.6375 136.928 TC 80 19.5628 136.823 3 81 19.6375 136.928 80 964 390 7 34
1949243N17145 1949 62 WP MM LISE 1949-09-03 00:00:00 TS 19.9000 137.267 main 1404 1389 O_O______OOO__ jtwc_wp WP101949 19.9000 137.100 85 2 20.0000 138.000 4 68 977 19.9000 137.100 TC 85 19.9000 137.100 4 85 19.9000 137.100 85 962 360 6 43
1949243N17145 1949 62 WP MM LISE 1949-09-03 03:00:00 TS 20.1179 137.503 main 1394 1380 P_P______PPP__ WP101949 20.0347 137.291 87 2 20.3349 138.393 4 68 976 20.0347 137.291 TC 87 20.1968 137.413 4 86 20.0347 137.291 87 960 300 7 47
1949243N17145 1949 62 WP MM LISE 1949-09-03 06:00:00 TS 20.3775 137.813 main 1380 1366 O_O______OPO__ jtwc_wp WP101949 20.2000 137.600 90 2 20.7000 138.800 4 68 975 20.2000 137.600 TC 90 20.4728 137.803 4 87 20.2000 137.600 90 958 240 9 47
1949243N17145 1949 62 WP MM LISE 1949-09-03 09:00:00 TS 20.7551 138.225 main 1362 1354 P_P______PPP__ WP101949 20.5852 138.104 90 2 21.0425 139.258 4 68 973 20.5852 138.104 TC 90 20.7373 138.241 4 88 20.5852 138.104 90 955 240 11 48
1949243N17145 1949 62 WP MM LISE 1949-09-03 12:00:00 TS 21.1333 138.700 main 1360 1347 O_O______OOO__ jtwc_wp WP101949 21.0000 138.700 90 2 21.4000 139.700 4 68 972 21.0000 138.700 TC 90 21.0000 138.700 4 90 21.0000 138.700 90 953 240 11 52
1949243N17145 1949 62 WP MM LISE 1949-09-03 15:00:00 TS 21.4301 139.152 main 1359 1346 P_P______PPP__ WP101949 21.2651 139.280 90 2 21.7999 140.073 4 72 971 21.2651 139.280 TC 90 21.2505 139.141 4 92 21.2651 139.280 90 950 240 10 55
1949243N17145 1949 62 WP MM LISE 1949-09-03 18:00:00 TS 21.7064 139.571 main 1354 1334 O_O______OPO__ jtwc_wp WP101949 21.5000 139.800 90 2 22.2000 140.400 4 77 970 21.5000 139.800 TC 90 21.5049 139.594 4 95 21.5000 139.800 90 947 240 9 51
1949243N17145 1949 62 WP MM LISE 1949-09-03 21:00:00 TS 22.0107 139.937 main 1334 1312 P_P______PPP__ WP101949 21.7922 140.188 95 2 22.5650 140.738 4 77 970 21.7922 140.188 TC 95 21.7818 140.050 4 97 21.7922 140.188 95 944 240 9 46
1949243N17145 1949 62 WP MM LISE 1949-09-04 00:00:00 TS 22.3333 140.267 main 1315 1290 O_O______OOO__ jtwc_wp WP101949 22.1000 140.500 100 3 22.9000 141.000 4 77 970 22.1000 140.500 TC 100 22.1000 140.500 4 100 22.1000 140.500 100 942 240 9 42
1949243N17145 1949 62 WP MM LISE 1949-09-04 03:00:00 TS 22.6581 140.576 main 1283 1263 P_P______PPP__ WP101949 22.3621 140.771 110 3 23.1999 141.123 4 77 970 22.3621 140.771 TC 110 22.4738 140.960 4 105 22.3621 140.771 110 940 300 9 41
1949243N17145 1949 62 WP MM LISE 1949-09-04 06:00:00 TS 23.0364 140.922 main 1263 1228 O_O______OPO__ jtwc_wp WP101949 22.7000 141.100 120 4 23.5000 141.200 4 77 970 22.7000 141.100 TC 120 22.8902 141.410 4 110 22.7000 141.100 120 938 360 11 41
1949243N17145 1949 62 WP MM LISE 1949-09-04 09:00:00 TS 23.5136 141.390 main 1232 1200 P_P______PPP__ WP101949 23.2129 141.642 120 4 23.8275 141.343 4 77 970 23.2129 141.642 TC 120 23.3364 141.829 4 115 23.2129 141.642 120 938 360 13 41
1949243N17145 1949 62 WP MM LISE 1949-09-04 12:00:00 TS 24.0333 141.867 main 1205 1171 O_O______OOO__ jtwc_wp WP101949 23.8000 142.200 120 4 24.2000 141.500 4 77 970 23.8000 142.200 TC 120 23.8000 142.200 4 120 23.8000 142.200 120 938 360 13 37
1949243N17145 1949 62 WP MM LISE 1949-09-04 15:00:00 TS 24.5408 142.250 main 1176 1131 P_P______PPP__ WP101949 24.3723 142.610 120 4 24.6350 141.643 4 77 970 24.3723 142.610 TC 120 24.2312 142.475 4 120 24.3723 142.610 120 938 330 12 34
1949243N17145 1949 62 WP MM LISE 1949-09-04 18:00:00 TS 24.9973 142.584 main 1131 1103 O_O______OPO__ jtwc_wp WP101949 24.9000 142.900 120 4 25.1000 141.800 4 77 970 24.9000 142.900 TC 120 24.6811 142.704 4 120 24.9000 142.900 120 939 300 10 31
1949243N17145 1949 62 WP MM LISE 1949-09-04 21:00:00 TS 25.3708 142.804 main 1095 1057 P_P______PPP__ WP101949 25.2771 143.036 120 4 25.5198 141.956 4 77 970 25.2771 143.036 TC 120 25.1656 142.931 4 120 25.2771 143.036 120 939 300 9 27
1949243N17145 1949 62 WP MM LISE 1949-09-05 00:00:00 TS 25.7905 143.024 main 1057 1005 O_O______OOO__ jtwc_wp WP101949 25.7000 143.200 120 4 26.0000 142.200 4 77 970 25.7000 143.200 TC 120 25.7000 143.200 4 120 25.7000 143.200 120 940 300 12 27
1949243N17145 1949 62 WP MM LISE 1949-09-05 03:00:00 TS 26.4023 143.397 main 1005 945 P_P______PPP__ WP101949 26.3703 143.612 120 4 26.6048 142.583 4 77 970 26.3703 143.612 TC 120 26.2958 143.567 4 120 26.3703 143.612 120 941 300 15 30
1949243N17145 1949 62 WP MM LISE 1949-09-05 06:00:00 TS 27.1080 143.877 main 949 904 O_O______OPO__ jtwc_wp WP101949 27.1000 144.100 120 4 27.3000 143.100 4 77 970 27.1000 144.100 TC 120 26.9402 143.983 4 120 27.1000 144.100 120 942 300 16 32
1949243N17145 1949 62 WP MM LISE 1949-09-05 09:00:00 TS 27.7588 144.338 main 894 860 P_P______PPP__ WP101949 27.6998 144.508 120 4 28.0803 143.734 4 77 970 27.6998 144.508 TC 120 27.6144 144.433 4 120 27.6998 144.508 120 943 330 15 32
1949243N17145 1949 62 WP MM LISE 1949-09-05 12:00:00 TS 28.4000 144.800 main 860 825 O_O______OOO__ jtwc_wp WP101949 28.3000 144.900 120 4 28.8000 144.400 4 77 970 28.3000 144.900 TC 120 28.3000 144.900 4 120 28.3000 144.900 120 945 360 15 31
1949243N17145 1949 62 WP MM LISE 1949-09-05 15:00:00 TS 29.0445 145.225 main 825 788 P_P______PPP__ WP101949 28.9922 145.278 120 4 29.2867 144.944 4 77 970 28.9922 145.278 TC 120 28.9590 145.347 4 120 28.9922 145.278 120 946 360 15 31
1949243N17145 1949 62 WP MM LISE 1949-09-05 18:00:00 TS 29.6853 145.682 main 788 768 O_O______OPO__ jtwc_wp WP101949 29.7000 145.700 120 4 29.7000 145.500 4 77 970 29.7000 145.700 TC 120 29.6265 145.809 4 120 29.7000 145.700 120 948 360 15 35
1949243N17145 1949 62 WP MM LISE 1949-09-05 21:00:00 TS 30.3083 146.242 main 768 764 P_P______PPP__ WP101949 30.3502 146.243 120 4 30.1852 146.193 4 77 968 30.3502 146.243 TC 120 30.3058 146.291 4 120 30.3502 146.243 120 950 330 16 38
1949243N17145 1949 62 WP MM LISE 1949-09-06 00:00:00 TS 30.9400 146.820 main 764 746 O_O______OOO__ jtwc_wp WP101949 31.0000 146.800 120 4 30.7000 146.900 4 77 967 31.0000 146.800 TC 120 31.0000 146.800 4 120 31.0000 146.800 120 952 300 16 35
1949243N17145 1949 62 WP MM LISE 1949-09-06 03:00:00 TS 31.6056 147.307 main 747 735 P_P______PPP__ WP101949 31.6842 147.229 120 4 31.2497 147.530 4 77 966 31.6842 147.229 TC 120 31.7256 147.316 4 115 31.6842 147.229 120 954 270 16 32
1949243N17145 1949 62 WP MM LISE 1949-09-06 06:00:00 TS 32.2926 147.813 main 739 737 O_O______OPO__ jtwc_wp WP101949 32.4000 147.700 120 4 31.8000 148.100 4 77 965 32.4000 147.700 TC 120 32.4630 147.864 4 110 32.4000 147.700 120 957 240 17 34
1949243N17145 1949 62 WP MM LISE 1949-09-06 09:00:00 TS 33.0024 148.439 main 749 749 P_P______PPP__ WP101949 33.1728 148.369 110 3 32.2998 148.631 4 82 963 33.1728 148.369 TC 110 33.1939 148.454 4 105 33.1728 148.369 110 959 300 18 38
1949243N17145 1949 62 WP MM LISE 1949-09-06 12:00:00 TS 33.6800 149.100 main 780 780 O_O______OOO__ jtwc_wp WP101949 33.9000 149.100 100 3 32.8000 149.100 5 87 962 33.9000 149.100 TC 100 33.9000 149.100 4 100 33.9000 149.100 100 961 360 16 40
1949243N17145 1949 62 WP MM LISE 1949-09-06 15:00:00 TS 34.2513 149.705 main 814 814 P_P______PPP__ WP101949 34.4564 149.723 95 2 33.3200 149.545 5 87 961 34.4564 149.723 TC 95 34.5672 149.808 4 93 34.4564 149.723 95 964 330 15 42
1949243N17145 1949 62 WP MM LISE 1949-09-06 18:00:00 TS 34.8000 150.322 main 857 857 O_O______OPO__ jtwc_wp WP101949 35.0000 150.400 90 2 33.9000 149.900 5 87 960 35.0000 150.400 TC 90 35.2001 150.570 4 87 35.0000 150.400 90 967 300 16 42
1949243N17145 1949 62 WP MM LISE 1949-09-06 21:00:00 TS 35.4575 151.023 main 897 897 P_P______PPP__ WP101949 35.6924 151.255 82 1 34.5774 150.153 5 87 960 35.6924 151.255 TC 82 35.8079 151.372 4 81 35.6924 151.255 82 971 330 17 40
1949243N17145 1949 62 WP MM LISE 1949-09-07 00:00:00 TS 36.0857 151.657 main 921 916 O_O______OOO__ jtwc_wp WP101949 36.4000 152.200 75 1 35.3000 150.300 5 87 960 36.4000 152.200 TC 75 36.4000 152.200 4 75 36.4000 152.200 75 975 360 14 35
1949243N17145 1949 62 WP MM LISE 1949-09-07 03:00:00 TS 36.6292 152.043 main 918 873 P_P______P_P__ WP101949 37.0287 153.151 67 1 36.0299 150.380 5 87 960 37.0287 153.151 TC 67 4 37.0287 153.151 67 978 360 10 15
1949243N17145 1949 62 WP MM LISE 1949-09-07 06:00:00 TS 37.0857 151.986 main 873 773 O_O______O_O__ jtwc_wp WP101949 37.6000 154.100 60 0 36.7000 150.400 5 87 960 37.6000 154.100 TC 60 4 37.6000 154.100 60 982 360 14 295
1949243N17145 1949 62 WP MM LISE 1949-09-07 09:00:00 TS 37.2450 150.408 main 765 738 __P___________ WP101949 -1 37.2450 150.408 5 87 960 TC 4 14 296
1949243N17145 1949 62 WP MM LISE 1949-09-07 12:00:00 TS 37.7000 150.400 main 738 701 __O___________ -1 37.7000 150.400 5 87 960 9 358
1949243N17145 1949 62 WP MM LISE 1949-09-07 15:00:00 TS 38.1150 150.400 main 701 664 __P___________ -1 38.1150 150.400 5 87 960 8 1
1949243N17145 1949 62 WP MM LISE 1949-09-07 18:00:00 TS 38.5000 150.400 main 664 629 __O___________ -1 38.5000 150.400 5 87 960 8 0
1949243N17145 1949 62 WP MM LISE 1949-09-07 21:00:00 TS 38.8774 150.371 main 629 595 __P___________ -1 38.8774 150.371 5 82 965 8 1
1949243N17145 1949 62 WP MM LISE 1949-09-08 00:00:00 TS 39.3000 150.400 main 595 561 __O___________ -1 39.3000 150.400 4 77 970 9 7
1949243N17145 1949 62 WP MM LISE 1949-09-08 03:00:00 TS 39.8195 150.511 main 561 536 __P___________ -1 39.8195 150.511 4 67 975 11 16
1949243N17145 1949 62 WP MM LISE 1949-09-08 06:00:00 TS 40.4000 150.800 main 536 522 __O___________ -1 40.4000 150.800 3 58 980 13 27
1949243N17145 1949 62 WP MM LISE 1949-09-08 09:00:00 TS 40.9771 151.296 main 518 481 __P___________ -1 40.9771 151.296 3 48 985 15 37
1949243N17145 1949 62 WP MM LISE 1949-09-08 12:00:00 ET 41.6000 152.000 main 481 447 __O___________ -1 41.6000 152.000 9 38 990 18 42
1949243N17145 1949 62 WP MM LISE 1949-09-08 15:00:00 ET 42.2856 152.870 main 446 432 __P___________ -1 42.2856 152.870 9 33 995 19 44
1949243N17145 1949 62 WP MM LISE 1949-09-08 18:00:00 ET 43.0000 153.800 main 432 424 __O___________ -1 43.0000 153.800 9 29 1000 18 43
1949243N17145 1949 62 WP MM LISE 1949-09-08 21:00:00 ET 43.6380 154.570 main 430 422 __P___________ -1 43.6380 154.570 9 1000 18 40
1949243N17145 1949 62 WP MM LISE 1949-09-09 00:00:00 ET 44.4000 155.400 main 433 433 __O___________ -1 44.4000 155.400 9 1001 24 37
1949243N17145 1949 62 WP MM LISE 1949-09-09 03:00:00 ET 45.5480 156.605 main 483 413 __P___________ -1 45.5480 156.605 9 1001 27 36
1949243N17145 1949 62 WP MM LISE 1949-09-09 06:00:00 ET 46.6000 157.700 main 413 381 __O___________ -1 46.6000 157.700 9 1002 20 35
1949243N17145 1949 62 WP MM LISE 1949-09-09 09:00:00 ET 47.1577 158.236 main 372 360 __P___________ -1 47.1577 158.236 9 1003 9 31
1949243N17145 1949 62 WP MM LISE 1949-09-09 12:00:00 ET 47.4000 158.400 main 360 __O___________ -1 47.4000 158.400 9 1004 5 25

デジタル台風データ・検索

IBTrACS Databaseについて

本データベースは、米国NOAAが公開する1842年以降の世界の熱帯低気圧のベストトラックデータアーカイブInternational Best Track Archive for Climate Stewardship (IBTrACS)を、ウェブで閲覧しやすい形式に変換したものです。

最終更新日:2021-12-01